createdAt,value
2018-10-02T00:00:51.296Z,99557.12
2018-10-02T00:03:20.227Z,99556.07
2018-10-02T00:05:50.033Z,99557.72
2018-10-02T00:08:18.646Z,99560.71
2018-10-02T00:10:52.852Z,99556.12
2018-10-02T00:13:28.647Z,99555.56
2018-10-02T00:15:58.917Z,99552.84
2018-10-02T00:18:30.149Z,99553.70
2018-10-02T00:21:03.774Z,99552.59
2018-10-02T00:23:33.771Z,99552.92
2018-10-02T00:26:04.371Z,99557.78
2018-10-02T00:28:33.947Z,99552.92
2018-10-02T00:31:04.276Z,99552.63
2018-10-02T00:33:32.788Z,99549.03
2018-10-02T00:36:02.482Z,99544.94
2018-10-02T00:38:31.709Z,99551.23
2018-10-02T00:41:01.680Z,99544.66
2018-10-02T00:43:32.555Z,99547.73
2018-10-02T00:46:01.500Z,99549.12
2018-10-02T00:48:31.069Z,99543.98
2018-10-02T00:51:00.561Z,99547.06
2018-10-02T00:53:29.125Z,99541.50
2018-10-02T00:55:58.648Z,99544.94
2018-10-02T00:58:27.918Z,99543.86
2018-10-02T01:00:56.403Z,99546.04
2018-10-02T01:03:25.943Z,99547.91
2018-10-02T01:05:54.458Z,99545.00
2018-10-02T01:08:24.761Z,99546.25
2018-10-02T01:10:53.721Z,99548.11
2018-10-02T01:13:22.555Z,99543.11
2018-10-02T01:15:52.483Z,99541.61
2018-10-02T01:18:21.702Z,99542.06
2018-10-02T01:20:50.669Z,99532.08
2018-10-02T01:23:20.980Z,99536.66
2018-10-02T01:25:50.362Z,99535.29
2018-10-02T01:28:19.981Z,99531.23
2018-10-02T01:30:50.071Z,99533.05
2018-10-02T01:33:20.628Z,99527.93
2018-10-02T01:35:50.048Z,99519.81
2018-10-02T01:38:19.914Z,99528.14
2018-10-02T01:40:49.953Z,99525.91
2018-10-02T01:43:20.568Z,99537.46
2018-10-02T01:45:49.840Z,99521.89
2018-10-02T01:48:20.610Z,99514.30
2018-10-02T01:50:51.784Z,99515.69
2018-10-02T01:53:21.501Z,99511.09
2018-10-02T01:55:50.859Z,99508.67
2018-10-02T01:58:19.524Z,99515.88
2018-10-02T02:00:49.197Z,99521.87
2018-10-02T02:03:18.305Z,99516.08
2018-10-02T02:05:50.227Z,99522.41
2018-10-02T02:08:19.581Z,99531.42
2018-10-02T02:10:48.834Z,99516.73
2018-10-02T02:13:17.833Z,99517.59
2018-10-02T02:15:48.150Z,99524.92
2018-10-02T02:18:19.067Z,99517.50
2018-10-02T02:20:48.761Z,99526.80
2018-10-02T02:23:17.988Z,99531.62
2018-10-02T02:25:46.789Z,99527.84
2018-10-02T02:28:16.656Z,99528.14
2018-10-02T02:30:46.417Z,99518.81
2018-10-02T02:33:14.988Z,99517.84
2018-10-02T02:35:45.373Z,99521.30
2018-10-02T02:38:14.271Z,99528.73
2018-10-02T02:40:43.923Z,99523.30
2018-10-02T02:43:13.625Z,99527.46
2018-10-02T02:45:42.509Z,99522.81
2018-10-02T02:48:17.410Z,99525.34
2018-10-02T02:51:01.938Z,99528.34
2018-10-02T02:53:33.830Z,99528.63
2018-10-02T02:56:03.812Z,99531.91
2018-10-02T02:58:33.716Z,99541.17
2018-10-02T03:01:03.092Z,99545.88
2018-10-02T03:03:32.735Z,99547.91
2018-10-02T03:06:02.177Z,99536.61
2018-10-02T03:08:31.863Z,99532.27
2018-10-02T03:11:01.451Z,99528.28
2018-10-02T03:13:30.272Z,99521.10
2018-10-02T03:16:00.309Z,99521.22
2018-10-02T03:18:29.946Z,99526.13
2018-10-02T03:21:00.114Z,99524.18
2018-10-02T03:23:29.617Z,99529.51
2018-10-02T03:26:00.874Z,99523.66
2018-10-02T03:28:29.928Z,99527.14
2018-10-02T03:30:59.395Z,99525.95
2018-10-02T03:33:27.974Z,99523.90
2018-10-02T03:35:58.308Z,99521.44
2018-10-02T03:38:27.579Z,99521.04
2018-10-02T03:40:57.123Z,99514.31
2018-10-02T03:43:27.267Z,99506.02
2018-10-02T03:45:57.717Z,99498.53
2018-10-02T03:48:26.733Z,99504.63
2018-10-02T03:50:56.078Z,99508.18
2018-10-02T03:53:26.479Z,99502.08
2018-10-02T03:55:56.190Z,99511.77
2018-10-02T03:58:24.880Z,99505.73
2018-10-02T04:00:53.901Z,99499.20
2018-10-02T04:03:24.746Z,99490.59
2018-10-02T04:05:55.381Z,99484.17
2018-10-02T04:08:25.242Z,99480.06
2018-10-02T04:10:55.097Z,99476.67
2018-10-02T04:13:24.191Z,99483.06
2018-10-02T04:15:54.092Z,99487.07
2018-10-02T04:18:23.643Z,99487.92
2018-10-02T04:20:54.842Z,99477.76
2018-10-02T04:23:23.492Z,99481.14
2018-10-02T04:25:53.447Z,99482.53
2018-10-02T04:28:22.739Z,99481.84
2018-10-02T04:30:51.293Z,99469.60
2018-10-02T04:33:21.811Z,99477.06
2018-10-02T04:35:51.548Z,99480.09
2018-10-02T04:38:20.971Z,99480.22
2018-10-02T04:40:49.977Z,99477.02
2018-10-02T04:43:19.569Z,99473.09
2018-10-02T04:45:50.462Z,99482.92
2018-10-02T04:48:19.260Z,99479.12
2018-10-02T04:50:47.973Z,99479.89
2018-10-02T04:53:17.165Z,99475.78
2018-10-02T04:55:46.907Z,99478.65
2018-10-02T04:58:15.620Z,99484.23
2018-10-02T05:00:45.563Z,99475.72
2018-10-02T05:03:14.483Z,99480.88
2018-10-02T05:05:44.930Z,99478.92
2018-10-02T05:08:14.635Z,99486.34
2018-10-02T05:10:43.694Z,99483.56
2018-10-02T05:13:13.954Z,99484.02
2018-10-02T05:15:44.176Z,99489.42
2018-10-02T05:18:13.477Z,99489.42
2018-10-02T05:20:42.972Z,99486.12
2018-10-02T05:23:12.187Z,99480.48
2018-10-02T05:25:41.296Z,99480.70
2018-10-02T05:28:10.741Z,99483.72
2018-10-02T05:30:39.956Z,99483.11
2018-10-02T05:33:09.057Z,99478.13
2018-10-02T05:35:38.142Z,99474.20
2018-10-02T05:38:06.852Z,99481.28
2018-10-02T05:40:37.367Z,99472.15
2018-10-02T05:43:07.436Z,99477.22
2018-10-02T05:45:37.503Z,99461.06
2018-10-02T05:48:07.253Z,99439.42
2018-10-02T05:50:38.072Z,99436.74
2018-10-02T05:53:07.154Z,99433.84
2018-10-02T05:55:36.116Z,99443.08
2018-10-02T05:58:05.247Z,99434.59
2018-10-02T06:00:34.629Z,99429.65
2018-10-02T06:03:03.477Z,99442.39
2018-10-02T06:05:33.036Z,99444.53
2018-10-02T06:08:02.328Z,99446.61
2018-10-02T06:10:31.437Z,99450.02
2018-10-02T06:12:59.866Z,99458.99
2018-10-02T06:15:30.563Z,99461.61
2018-10-02T06:18:00.093Z,99465.55
2018-10-02T06:20:29.498Z,99465.52
2018-10-02T06:22:58.533Z,99470.53
2018-10-02T06:25:28.989Z,99471.06
2018-10-02T06:27:58.068Z,99475.73
2018-10-02T06:30:29.724Z,99479.46
2018-10-02T06:32:58.861Z,99481.69
2018-10-02T06:35:27.288Z,99485.56
2018-10-02T06:37:57.209Z,99493.89
2018-10-02T06:40:27.273Z,99492.73
2018-10-02T06:42:57.247Z,99492.25
2018-10-02T06:45:26.775Z,99496.38
2018-10-02T06:47:57.210Z,99490.37
2018-10-02T06:50:30.819Z,99496.61
2018-10-02T06:53:00.810Z,99488.06
2018-10-02T06:55:31.773Z,99489.81
2018-10-02T06:58:02.299Z,99484.22
2018-10-02T07:00:32.326Z,99484.74
2018-10-02T07:03:02.409Z,99483.53
2018-10-02T07:05:32.016Z,99481.80
2018-10-02T07:08:00.792Z,99489.97
2018-10-02T07:10:30.315Z,99488.49
2018-10-02T07:12:59.324Z,99478.64
2018-10-02T07:15:28.574Z,99484.25
2018-10-02T07:17:58.846Z,99481.46
2018-10-02T07:20:28.005Z,99486.66
2018-10-02T07:22:57.721Z,99484.36
2018-10-02T07:25:28.201Z,99478.97
2018-10-02T07:27:58.708Z,99485.14
2018-10-02T07:30:27.722Z,99475.84
2018-10-02T07:32:56.307Z,99470.73
2018-10-02T07:35:26.491Z,99481.19
2018-10-02T07:37:56.149Z,99491.25
2018-10-02T07:40:27.890Z,99488.17
2018-10-02T07:42:58.434Z,99490.48
2018-10-02T07:45:28.042Z,99487.56
2018-10-02T07:47:56.872Z,99488.64
2018-10-02T07:50:26.462Z,99481.20
2018-10-02T07:52:56.249Z,99485.94
2018-10-02T07:55:25.694Z,99498.94
2018-10-02T07:57:55.144Z,99493.48
2018-10-02T08:00:24.592Z,99500.05
2018-10-02T08:02:53.512Z,99506.43
2018-10-02T08:05:24.489Z,99498.30
2018-10-02T08:07:53.778Z,99496.28
2018-10-02T08:10:24.025Z,99481.45
2018-10-02T08:12:52.929Z,99484.30
2018-10-02T08:15:23.179Z,99491.73
2018-10-02T08:17:53.189Z,99487.95
2018-10-02T08:20:27.023Z,99479.28
2018-10-02T08:22:56.786Z,99482.31
2018-10-02T08:25:25.544Z,99470.95
2018-10-02T08:27:54.636Z,99468.60
2018-10-02T08:30:23.951Z,99465.82
2018-10-02T08:32:52.510Z,99463.19
2018-10-02T08:35:21.877Z,99457.23
2018-10-02T08:37:50.840Z,99451.83
2018-10-02T08:40:20.025Z,99441.45
2018-10-02T08:42:49.592Z,99440.39
2018-10-02T08:45:18.895Z,99437.69
2018-10-02T08:47:47.692Z,99428.09
2018-10-02T08:50:17.279Z,99437.11
2018-10-02T08:52:46.560Z,99430.85
2018-10-02T08:55:15.374Z,99428.22
2018-10-02T08:57:45.522Z,99427.61
2018-10-02T09:00:14.965Z,99437.34
2018-10-02T09:02:44.165Z,99433.20
2018-10-02T09:05:14.077Z,99431.98
2018-10-02T09:07:43.438Z,99435.69
2018-10-02T09:10:12.529Z,99431.48
2018-10-02T09:12:41.968Z,99424.21
2018-10-02T09:15:12.324Z,99427.09
2018-10-02T09:17:40.974Z,99421.23
2018-10-02T09:20:11.541Z,99429.45
2018-10-02T09:22:41.535Z,99423.84
2018-10-02T09:25:12.066Z,99418.89
2018-10-02T09:27:42.254Z,99424.38
2018-10-02T09:30:17.740Z,99429.50
2018-10-02T09:32:51.793Z,99438.80
2018-10-02T09:35:26.722Z,99426.11
2018-10-02T09:38:02.592Z,99416.59
2018-10-02T09:40:38.728Z,99413.65
2018-10-02T09:43:13.673Z,99411.80
2018-10-02T09:45:42.847Z,99415.40
2018-10-02T09:48:13.942Z,99414.31
2018-10-02T09:50:44.036Z,99413.62
2018-10-02T09:53:13.642Z,99410.45
2018-10-02T09:55:43.761Z,99409.00
2018-10-02T09:58:13.200Z,99401.22
2018-10-02T10:00:48.499Z,99404.86
2018-10-02T10:03:17.065Z,99405.55
2018-10-02T10:05:48.307Z,99401.72
2018-10-02T10:08:18.720Z,99391.84
2018-10-02T10:10:48.264Z,99376.42
2018-10-02T10:13:17.905Z,99381.16
2018-10-02T10:15:49.448Z,99377.05
2018-10-02T10:18:19.085Z,99372.59
2018-10-02T10:20:49.345Z,99372.20
2018-10-02T10:23:20.873Z,99371.04
2018-10-02T10:25:51.217Z,99370.19
2018-10-02T10:28:20.918Z,99363.41
2018-10-02T10:30:49.801Z,99361.35
2018-10-02T10:33:22.380Z,99360.89
2018-10-02T10:35:52.617Z,99369.77
2018-10-02T10:38:23.580Z,99371.89
2018-10-02T10:40:53.746Z,99368.69
2018-10-02T10:43:22.574Z,99366.51
2018-10-02T10:45:52.097Z,99349.55
2018-10-02T10:48:20.537Z,99343.97
2018-10-02T10:50:49.912Z,99342.49
2018-10-02T10:53:20.233Z,99348.49
2018-10-02T10:55:49.016Z,99351.13
2018-10-02T10:58:18.398Z,99350.81
2018-10-02T11:00:48.619Z,99346.27
2018-10-02T11:03:17.713Z,99336.48
2018-10-02T11:05:46.528Z,99337.09
2018-10-02T11:08:15.245Z,99335.50
2018-10-02T11:10:44.308Z,99329.84
2018-10-02T11:13:13.305Z,99331.95
2018-10-02T11:15:42.680Z,99338.63
2018-10-02T11:18:12.829Z,99340.17
2018-10-02T11:20:41.860Z,99337.97
2018-10-02T11:23:11.973Z,99330.95
2018-10-02T11:25:41.471Z,99343.81
2018-10-02T11:28:11.242Z,99348.84
2018-10-02T11:30:41.510Z,99338.31
2018-10-02T11:33:11.792Z,99340.77
2018-10-02T11:35:40.630Z,99338.52
2018-10-02T11:38:09.412Z,99338.36
2018-10-02T11:40:38.849Z,99330.55
2018-10-02T11:43:08.319Z,99325.52
2018-10-02T11:45:38.402Z,99321.14
2018-10-02T11:48:08.857Z,99320.98
2018-10-02T11:50:38.256Z,99330.66
2018-10-02T11:53:07.429Z,99317.58
2018-10-02T11:55:37.082Z,99325.61
2018-10-02T11:58:06.789Z,99330.28
2018-10-02T12:00:35.577Z,99325.02
2018-10-02T12:03:05.248Z,99328.56
2018-10-02T12:05:34.443Z,99319.68
2018-10-02T12:08:03.912Z,99322.31
2018-10-02T12:10:33.761Z,99326.41
2018-10-02T12:13:03.534Z,99323.09
2018-10-02T12:15:32.971Z,99310.28
2018-10-02T12:18:03.025Z,99304.84
2018-10-02T12:20:32.945Z,99304.38
2018-10-02T12:23:01.628Z,99302.67
2018-10-02T12:25:31.397Z,99316.66
2018-10-02T12:28:00.556Z,99307.10
2018-10-02T12:30:30.161Z,99301.99
2018-10-02T12:32:59.335Z,99298.59
2018-10-02T12:35:28.136Z,99297.19
2018-10-02T12:37:58.133Z,99289.33
2018-10-02T12:40:27.020Z,99293.15
2018-10-02T12:42:56.012Z,99288.89
2018-10-02T12:45:25.990Z,99274.14
2018-10-02T12:47:56.034Z,99271.88
2018-10-02T12:50:25.307Z,99279.20
2018-10-02T12:52:55.028Z,99266.91
2018-10-02T12:55:24.759Z,99270.34
2018-10-02T12:57:54.287Z,99273.75
2018-10-02T13:00:23.556Z,99279.58
2018-10-02T13:02:54.417Z,99273.44
2018-10-02T13:05:24.044Z,99276.68
2018-10-02T13:07:53.329Z,99268.38
2018-10-02T13:10:27.006Z,99269.53
2018-10-02T13:12:56.403Z,99266.89
2018-10-02T13:15:26.765Z,99264.50
2018-10-02T13:17:55.451Z,99258.77
2018-10-02T13:20:23.936Z,99260.39
2018-10-02T13:22:53.115Z,99265.83
2018-10-02T13:25:24.099Z,99262.33
2018-10-02T13:27:53.570Z,99249.70
2018-10-02T13:30:23.203Z,99247.06
2018-10-02T13:32:52.209Z,99241.92
2018-10-02T13:35:23.008Z,99243.03
2018-10-02T13:37:53.694Z,99252.17
2018-10-02T13:40:24.064Z,99246.81
2018-10-02T13:42:55.925Z,99255.56
2018-10-02T13:45:25.644Z,99247.75
2018-10-02T13:47:54.931Z,99250.60
2018-10-02T13:50:26.023Z,99247.56
2018-10-02T13:52:55.426Z,99244.90
2018-10-02T13:55:24.816Z,99247.20
2018-10-02T13:57:55.152Z,99247.11
2018-10-02T14:00:24.489Z,99240.47
2018-10-02T14:02:54.078Z,99241.52
2018-10-02T14:05:23.183Z,99233.63
2018-10-02T14:07:53.851Z,99236.34
2018-10-02T14:10:24.133Z,99244.80
2018-10-02T14:12:53.590Z,99235.95
2018-10-02T14:15:24.425Z,99236.34
2018-10-02T14:17:54.468Z,99230.42
2018-10-02T14:20:24.584Z,99230.87
2018-10-02T14:22:54.618Z,99227.03
2018-10-02T14:25:24.439Z,99223.04
2018-10-02T14:27:55.117Z,99224.67
2018-10-02T14:30:26.021Z,99226.46
2018-10-02T14:32:56.016Z,99227.94
2018-10-02T14:35:25.821Z,99226.46
2018-10-02T14:37:55.601Z,99232.13
2018-10-02T14:40:25.202Z,99215.31
2018-10-02T14:42:55.308Z,99223.59
2018-10-02T14:45:25.823Z,99224.45
2018-10-02T14:47:57.321Z,99224.09
2018-10-02T14:50:27.520Z,99224.87
2018-10-02T14:52:58.991Z,99235.36
2018-10-02T14:55:29.065Z,99248.00
2018-10-02T14:57:58.489Z,99244.59
2018-10-02T15:00:28.452Z,99244.45
2018-10-02T15:02:58.877Z,99238.94
2018-10-02T15:05:27.789Z,99240.27
2018-10-02T15:07:57.733Z,99240.86
2018-10-02T15:10:27.698Z,99242.47
2018-10-02T15:12:57.278Z,99242.64
2018-10-02T15:15:25.944Z,99232.09
2018-10-02T15:17:56.591Z,99231.23
2018-10-02T15:20:25.026Z,99232.38
2018-10-02T15:22:55.264Z,99228.09
2018-10-02T15:25:25.870Z,99221.91
2018-10-02T15:27:57.850Z,99224.84
2018-10-02T15:30:28.255Z,99225.42
2018-10-02T15:32:58.494Z,99225.19
2018-10-02T15:35:28.768Z,99231.62
2018-10-02T15:37:59.336Z,99225.58
2018-10-02T15:40:28.707Z,99211.41
2018-10-02T15:42:59.528Z,99224.25
2018-10-02T15:45:30.560Z,99217.33
2018-10-02T15:48:00.389Z,99214.18
2018-10-02T15:50:29.832Z,99209.91
2018-10-02T15:53:00.828Z,99200.34
2018-10-02T15:55:31.098Z,99195.55
2018-10-02T15:58:00.855Z,99202.44
2018-10-02T16:00:31.305Z,99194.38
2018-10-02T16:03:02.054Z,99208.98
2018-10-02T16:05:32.394Z,99210.03
2018-10-02T16:08:01.250Z,99206.73
2018-10-02T16:10:30.972Z,99210.17
2018-10-02T16:13:02.612Z,99218.57
2018-10-02T16:15:32.943Z,99215.14
2018-10-02T16:18:03.401Z,99222.69
2018-10-02T16:20:32.045Z,99227.45
2018-10-02T16:23:00.465Z,99237.45
2018-10-02T16:25:31.573Z,99239.61
2018-10-02T16:28:02.212Z,99243.67
2018-10-02T16:30:32.446Z,99248.63
2018-10-02T16:33:02.775Z,99239.52
2018-10-02T16:35:32.281Z,99239.14
2018-10-02T16:38:01.596Z,99244.52
2018-10-02T16:40:30.530Z,99246.41
2018-10-02T16:43:01.344Z,99243.91
2018-10-02T16:45:31.739Z,99244.06
2018-10-02T16:48:01.478Z,99253.73
2018-10-02T16:50:32.265Z,99249.77
2018-10-02T16:53:02.217Z,99255.33
2018-10-02T16:55:32.698Z,99258.97
2018-10-02T16:58:03.103Z,99264.69
2018-10-02T17:00:33.917Z,99273.41
2018-10-02T17:03:04.385Z,99267.70
2018-10-02T17:05:35.722Z,99264.59
2018-10-02T17:08:06.432Z,99270.86
2018-10-02T17:10:35.247Z,99272.28
2018-10-02T17:13:05.160Z,99272.37
2018-10-02T17:15:34.949Z,99278.50
2018-10-02T17:18:05.104Z,99279.08
2018-10-02T17:20:34.403Z,99280.96
2018-10-02T17:23:03.786Z,99279.78
2018-10-02T17:25:33.445Z,99290.55
2018-10-02T17:28:05.355Z,99278.47
2018-10-02T17:30:34.249Z,99289.22
2018-10-02T17:33:05.070Z,99285.02
2018-10-02T17:35:33.809Z,99296.77
2018-10-02T17:38:04.267Z,99285.25
2018-10-02T17:40:35.442Z,99289.17
2018-10-02T17:43:06.149Z,99287.28
2018-10-02T17:45:36.113Z,99297.85
2018-10-02T17:48:05.101Z,99295.12
2018-10-02T17:50:36.072Z,99290.16
2018-10-02T17:53:07.640Z,99295.31
2018-10-02T17:55:37.488Z,99289.02
2018-10-02T17:58:07.964Z,99291.95
2018-10-02T18:00:39.194Z,99293.55
2018-10-02T18:03:09.599Z,99301.96
2018-10-02T18:05:41.575Z,99296.39
2018-10-02T18:08:12.724Z,99298.79
2018-10-02T18:10:43.238Z,99294.86
2018-10-02T18:13:13.174Z,99305.88
2018-10-02T18:15:44.296Z,99305.59
2018-10-02T18:18:14.206Z,99307.91
2018-10-02T18:20:43.524Z,99309.80
2018-10-02T18:23:14.789Z,99307.34
2018-10-02T18:25:46.666Z,99316.73
2018-10-02T18:28:16.795Z,99313.62
2018-10-02T18:30:47.815Z,99316.55
2018-10-02T18:33:19.356Z,99313.24
2018-10-02T18:35:47.936Z,99317.58
2018-10-02T18:38:16.369Z,99315.79
2018-10-02T18:40:44.841Z,99314.22
2018-10-02T18:43:14.811Z,99316.17
2018-10-02T18:45:44.752Z,99322.31
2018-10-02T18:48:15.705Z,99328.36
2018-10-02T18:50:45.941Z,99330.47
2018-10-02T18:53:15.268Z,99326.37
2018-10-02T18:55:45.299Z,99329.67
2018-10-02T18:58:15.405Z,99329.15
2018-10-02T19:00:45.392Z,99328.58
2018-10-02T19:03:16.187Z,99328.30
2018-10-02T19:05:46.631Z,99330.37
2018-10-02T19:08:20.964Z,99333.78
2018-10-02T19:10:50.841Z,99339.16
2018-10-02T19:13:20.821Z,99326.78
2018-10-02T19:15:55.743Z,99334.16
2018-10-02T19:18:25.665Z,99336.98
2018-10-02T19:20:57.796Z,99334.21
2018-10-02T19:23:29.223Z,99330.66
2018-10-02T19:26:04.364Z,99330.24
2018-10-02T19:28:34.449Z,99329.34
2018-10-02T19:31:09.899Z,99323.95
2018-10-02T19:33:39.462Z,99323.06
2018-10-02T19:36:10.780Z,99321.69
2018-10-02T19:38:46.392Z,99319.36
2018-10-02T19:41:15.646Z,99318.95
2018-10-02T19:43:44.393Z,99317.34
2018-10-02T19:46:53.621Z,99317.63
2018-10-02T19:49:23.561Z,99307.14
2018-10-02T19:52:11.698Z,99306.38
2018-10-02T19:54:42.034Z,99314.56
2018-10-02T19:57:12.542Z,99309.84
2018-10-02T19:59:41.558Z,99320.08
2018-10-02T20:02:10.949Z,99309.18
2018-10-02T20:04:39.489Z,99319.25
2018-10-02T20:07:08.336Z,99334.64
2018-10-02T20:09:37.568Z,99326.05
2018-10-02T20:12:06.913Z,99330.67
2018-10-02T20:14:37.129Z,99335.28
2018-10-02T20:17:06.857Z,99338.65
2018-10-02T20:19:36.451Z,99343.38
2018-10-02T20:22:07.708Z,99345.59
2018-10-02T20:24:38.040Z,99347.47
2018-10-02T20:27:07.373Z,99347.47
2018-10-02T20:29:37.443Z,99341.62
2018-10-02T20:32:07.035Z,99344.83
2018-10-02T20:34:37.668Z,99339.58
2018-10-02T20:37:08.957Z,99341.56
2018-10-02T20:39:39.149Z,99337.87
2018-10-02T20:42:08.849Z,99338.06
2018-10-02T20:44:39.520Z,99346.28
2018-10-02T20:47:11.916Z,99357.25
2018-10-02T20:49:42.206Z,99340.84
2018-10-02T20:52:10.646Z,99347.36
2018-10-02T20:54:40.433Z,99349.25
2018-10-02T20:57:10.849Z,99343.17
2018-10-02T20:59:39.819Z,99350.86
2018-10-02T21:02:10.520Z,99346.28
2018-10-02T21:04:44.845Z,99346.80
2018-10-02T21:07:14.647Z,99338.66
2018-10-02T21:09:44.298Z,99343.20
2018-10-02T21:12:14.372Z,99330.35
2018-10-02T21:14:44.037Z,99324.36
2018-10-02T21:17:13.032Z,99323.98
2018-10-02T21:19:42.212Z,99326.29
2018-10-02T21:22:11.972Z,99324.20
2018-10-02T21:24:40.867Z,99335.92
2018-10-02T21:27:11.345Z,99336.40
2018-10-02T21:29:40.732Z,99336.02
2018-10-02T21:32:10.437Z,99335.92
2018-10-02T21:34:39.469Z,99334.54
2018-10-02T21:37:08.633Z,99342.54
2018-10-02T21:39:37.484Z,99340.02
2018-10-02T21:42:07.529Z,99343.89
2018-10-02T21:44:37.842Z,99336.65
2018-10-02T21:47:06.789Z,99345.75
2018-10-02T21:49:35.943Z,99336.52
2018-10-02T21:52:05.712Z,99330.95
2018-10-02T21:54:36.324Z,99338.51
2018-10-02T21:57:06.767Z,99344.46
2018-10-02T21:59:35.610Z,99335.20
2018-10-02T22:02:05.930Z,99334.53
2018-10-02T22:04:36.019Z,99328.77
2018-10-02T22:07:05.873Z,99341.25
2018-10-02T22:09:35.387Z,99343.55
2018-10-02T22:12:04.997Z,99342.12
2018-10-02T22:14:36.528Z,99347.07
2018-10-02T22:17:06.296Z,99340.41
2018-10-02T22:19:37.185Z,99343.06
2018-10-02T22:22:06.932Z,99337.42
2018-10-02T22:24:38.043Z,99341.64
2018-10-02T22:27:08.425Z,99347.88
2018-10-02T22:29:37.880Z,99343.85
2018-10-02T22:32:06.746Z,99343.27
2018-10-02T22:34:37.395Z,99336.39
2018-10-02T22:37:06.870Z,99339.53
2018-10-02T22:39:37.238Z,99337.19
2018-10-02T22:42:07.489Z,99331.64
2018-10-02T22:44:37.458Z,99321.61
2018-10-02T22:47:09.370Z,99325.59
2018-10-02T22:49:41.725Z,99319.33
2018-10-02T22:52:10.953Z,99314.81
2018-10-02T22:54:41.759Z,99314.44
2018-10-02T22:57:11.849Z,99316.25
2018-10-02T22:59:41.633Z,99320.29
2018-10-02T23:02:11.232Z,99315.94
2018-10-02T23:04:40.782Z,99318.50
2018-10-02T23:07:10.430Z,99324.69
2018-10-02T23:09:41.977Z,99332.89
2018-10-02T23:12:12.274Z,99322.50
2018-10-02T23:14:41.773Z,99336.20
2018-10-02T23:17:11.455Z,99338.22
2018-10-02T23:19:42.573Z,99342.69
2018-10-02T23:22:12.204Z,99342.02
2018-10-02T23:24:41.440Z,99339.38
2018-10-02T23:27:10.129Z,99330.55
2018-10-02T23:29:41.077Z,99321.73
2018-10-02T23:32:10.884Z,99325.84
2018-10-02T23:34:39.371Z,99329.67
2018-10-02T23:37:09.201Z,99324.49
2018-10-02T23:39:38.863Z,99316.39
2018-10-02T23:42:08.668Z,99320.78
2018-10-02T23:44:39.481Z,99318.42
2018-10-02T23:47:09.889Z,99318.12
2018-10-02T23:49:39.601Z,99311.64
2018-10-02T23:52:09.595Z,99325.27
2018-10-02T23:54:39.720Z,99329.56
2018-10-02T23:57:10.640Z,99333.03
2018-10-02T23:59:41.324Z,99324.86
